createdAt,value
2017-09-03T00:00:23.461Z,65.75
2017-09-03T00:01:33.805Z,65.43
2017-09-03T00:02:43.833Z,65.14
2017-09-03T00:03:53.849Z,65.43
2017-09-03T00:05:04.747Z,65.23
2017-09-03T00:06:15.966Z,65.91
2017-09-03T00:09:14.293Z,65.52
2017-09-03T00:10:24.633Z,65.81
2017-09-03T00:11:34.970Z,65.91
2017-09-03T00:12:45.343Z,65.52
2017-09-03T00:13:55.748Z,65.72
2017-09-03T00:15:06.087Z,65.52
2017-09-03T00:16:16.127Z,65.81
2017-09-03T00:17:26.469Z,65.81
2017-09-03T00:18:36.801Z,65.72
2017-09-03T00:19:47.201Z,65.72
2017-09-03T00:20:57.221Z,65.72
2017-09-03T00:22:07.565Z,65.81
2017-09-03T00:23:17.921Z,65.52
2017-09-03T00:24:28.263Z,65.81
2017-09-03T00:25:38.609Z,65.72
2017-09-03T00:26:48.959Z,65.52
2017-09-03T00:27:59.287Z,65.72
2017-09-03T00:29:09.301Z,65.91
2017-09-03T00:30:19.641Z,65.62
2017-09-03T00:31:30.610Z,65.91
2017-09-03T00:32:40.954Z,65.78
2017-09-03T00:33:51.318Z,66.16
2017-09-03T00:35:01.657Z,66.16
2017-09-03T00:36:11.684Z,65.78
2017-09-03T00:37:22.038Z,65.78
2017-09-03T00:38:32.051Z,66.06
2017-09-03T00:39:42.388Z,66.16
2017-09-03T00:40:52.732Z,66.35
2017-09-03T00:42:03.073Z,66.16
2017-09-03T00:43:13.488Z,65.59
2017-09-03T00:44:23.809Z,65.88
2017-09-03T00:45:34.157Z,65.75
2017-09-03T00:46:44.514Z,65.65
2017-09-03T00:47:56.300Z,65.94
2017-09-03T00:49:06.390Z,65.68
2017-09-03T00:50:16.741Z,65.65
2017-09-03T00:51:27.074Z,65.55
2017-09-03T00:52:37.097Z,65.65
2017-09-03T00:53:49.296Z,65.55
2017-09-03T00:54:59.640Z,65.55
2017-09-03T00:56:09.963Z,65.55
2017-09-03T00:57:19.988Z,65.55
2017-09-03T00:58:30.010Z,65.84
2017-09-03T00:59:39.733Z,65.65
2017-09-03T01:00:50.064Z,65.84
2017-09-03T01:02:00.914Z,65.84
2017-09-03T01:03:13.537Z,65.84
2017-09-03T01:04:25.155Z,65.65
2017-09-03T01:05:36.020Z,65.65
2017-09-03T01:06:48.709Z,65.46
2017-09-03T01:08:00.377Z,65.75
2017-09-03T01:09:10.721Z,65.17
2017-09-03T01:10:21.048Z,65.36
2017-09-03T01:11:31.390Z,65.46
2017-09-03T01:12:42.214Z,65.46
2017-09-03T01:13:54.148Z,65.46
2017-09-03T01:15:05.765Z,65.36
2017-09-03T01:16:19.241Z,65.55
2017-09-03T01:17:30.332Z,65.46
2017-09-03T01:18:42.364Z,65.55
2017-09-03T01:19:53.481Z,65.65
2017-09-03T01:21:04.224Z,65.65
2017-09-03T01:22:15.038Z,65.65
2017-09-03T01:23:26.386Z,65.75
2017-09-03T01:24:38.344Z,65.65
2017-09-03T01:25:48.686Z,65.17
2017-09-03T01:26:58.378Z,65.36
2017-09-03T01:28:09.145Z,65.36
2017-09-03T01:29:19.480Z,65.36
2017-09-03T01:30:29.684Z,65.17
2017-09-03T01:31:41.730Z,65.46
2017-09-03T01:32:52.777Z,65.36
2017-09-03T01:34:03.919Z,65.33
2017-09-03T01:35:16.564Z,65.46
2017-09-03T01:36:28.378Z,65.26
2017-09-03T01:37:38.734Z,65.36
2017-09-03T01:38:48.442Z,65.46
2017-09-03T01:39:58.801Z,65.65
2017-09-03T01:41:09.199Z,65.33
2017-09-03T01:42:19.539Z,65.36
2017-09-03T01:43:29.880Z,65.46
2017-09-03T01:44:40.226Z,65.36
2017-09-03T01:45:50.546Z,65.33
2017-09-03T01:47:01.830Z,65.33
2017-09-03T01:48:14.494Z,65.42
2017-09-03T01:49:27.147Z,65.62
2017-09-03T01:50:39.002Z,65.52
2017-09-03T01:51:49.663Z,65.62
2017-09-03T01:53:02.159Z,65.91
2017-09-03T01:54:12.908Z,65.71
2017-09-03T01:55:23.251Z,65.71
2017-09-03T01:56:33.266Z,65.71
2017-09-03T01:57:45.750Z,65.71
2017-09-03T01:58:56.102Z,65.52
2017-09-03T02:00:06.162Z,65.71
2017-09-03T02:01:15.957Z,65.68
2017-09-03T02:02:27.931Z,65.62
2017-09-03T02:03:39.455Z,65.49
2017-09-03T02:04:49.485Z,65.81
2017-09-03T02:05:59.827Z,65.81
2017-09-03T02:07:09.845Z,65.39
2017-09-03T02:08:19.592Z,65.68
2017-09-03T02:09:29.919Z,65.78
2017-09-03T02:10:42.184Z,65.68
2017-09-03T02:11:53.509Z,65.78
2017-09-03T02:13:03.558Z,65.78
2017-09-03T02:14:13.919Z,65.58
2017-09-03T02:15:24.544Z,65.39
2017-09-03T02:16:34.408Z,65.58
2017-09-03T02:17:44.550Z,65.68
2017-09-03T02:18:54.883Z,65.68
2017-09-03T02:20:05.916Z,65.49
2017-09-03T02:21:17.224Z,65.68
2017-09-03T02:22:27.567Z,65.78
2017-09-03T02:23:38.696Z,65.49
2017-09-03T02:24:51.570Z,65.68
2017-09-03T02:26:03.073Z,65.58
2017-09-03T02:27:14.414Z,65.49
2017-09-03T02:28:26.147Z,65.58
2017-09-03T02:29:36.325Z,65.39
2017-09-03T02:30:46.995Z,65.58
2017-09-03T02:31:58.509Z,65.58
2017-09-03T02:33:08.584Z,65.68
2017-09-03T02:34:18.948Z,65.68
2017-09-03T02:35:29.186Z,65.39
2017-09-03T02:36:40.716Z,65.58
2017-09-03T02:37:51.535Z,65.11
2017-09-03T02:39:01.877Z,65.11
2017-09-03T02:40:11.964Z,65.3
2017-09-03T02:41:23.456Z,65.2
2017-09-03T02:42:35.044Z,65.2
2017-09-03T02:43:45.385Z,65.39
2017-09-03T02:44:56.408Z,65.39
2017-09-03T02:46:06.882Z,65.49
2017-09-03T02:47:18.070Z,65.49
2017-09-03T02:48:29.261Z,65.49
2017-09-03T02:49:40.533Z,65.3
2017-09-03T02:50:51.342Z,65.49
2017-09-03T02:52:01.649Z,65.49
2017-09-03T02:53:11.998Z,65.23
2017-09-03T02:54:22.776Z,65.52
2017-09-03T02:55:34.914Z,65.42
2017-09-03T02:56:46.586Z,65.49
2017-09-03T02:57:56.922Z,65.58
2017-09-03T02:59:08.328Z,65.62
2017-09-03T03:00:19.171Z,65.71
2017-09-03T03:01:29.496Z,65.71
2017-09-03T03:33:21.532Z,62.11
2017-09-03T03:34:31.861Z,62.21
2017-09-03T03:35:42.175Z,63.64
2017-09-03T03:36:52.171Z,64.12
2017-09-03T03:38:02.518Z,64.22
2017-09-03T03:39:12.540Z,65.36
2017-09-03T03:40:22.884Z,65.2
2017-09-03T03:41:33.222Z,65.39
2017-09-03T03:42:45.508Z,66.06
2017-09-03T03:43:55.535Z,65.77
2017-09-03T03:45:05.240Z,66.06
2017-09-03T03:46:15.580Z,66.28
2017-09-03T03:47:25.907Z,66.38
2017-09-03T03:48:35.926Z,66.67
2017-09-03T03:49:46.280Z,66.28
2017-09-03T03:50:56.029Z,66.47
2017-09-03T03:52:08.426Z,66.22
2017-09-03T03:53:18.771Z,66.22
2017-09-03T03:54:29.106Z,66.41
2017-09-03T03:55:39.449Z,66.32
2017-09-03T03:56:49.818Z,66.22
2017-09-03T03:58:00.151Z,66.41
2017-09-03T03:59:10.180Z,66.13
2017-09-03T04:00:20.205Z,66.06
2017-09-03T04:01:30.696Z,66.06
2017-09-03T04:02:41.115Z,66.35
2017-09-03T04:03:51.456Z,65.88
2017-09-03T04:05:01.480Z,65.78
2017-09-03T04:06:11.812Z,65.68
2017-09-03T04:07:22.176Z,66.06
2017-09-03T04:08:32.211Z,66.06
2017-09-03T04:09:42.546Z,66.06
2017-09-03T04:10:52.882Z,66.06
2017-09-03T04:12:02.901Z,66.06
2017-09-03T04:13:13.250Z,65.68
2017-09-03T04:14:23.603Z,65.68
2017-09-03T04:15:33.624Z,66.45
2017-09-03T04:16:43.970Z,66.16
2017-09-03T04:17:54.008Z,66.16
2017-09-03T04:19:05.759Z,66.35
2017-09-03T04:20:16.093Z,66.54
2017-09-03T04:21:26.435Z,66.35
2017-09-03T04:22:36.450Z,66.16
2017-09-03T04:23:46.786Z,66.35
2017-09-03T04:24:56.803Z,66.16
2017-09-03T04:26:08.149Z,66.16
2017-09-03T04:27:18.495Z,66.54
2017-09-03T04:28:28.831Z,66.06
2017-09-03T04:29:38.854Z,66.35
2017-09-03T04:30:48.873Z,65.97
2017-09-03T04:31:59.213Z,65.68
2017-09-03T04:33:09.230Z,66.16
2017-09-03T04:34:19.568Z,66.06
2017-09-03T04:35:29.894Z,66.06
2017-09-03T04:36:40.212Z,65.88
2017-09-03T04:37:50.553Z,65.97
2017-09-03T04:39:00.886Z,66.16
2017-09-03T04:40:10.912Z,65.78
2017-09-03T04:41:21.254Z,66.19
2017-09-03T04:42:31.586Z,65.78
2017-09-03T04:43:41.969Z,66.06
2017-09-03T04:44:52.323Z,65.68
2017-09-03T04:46:02.665Z,66.16
2017-09-03T04:47:12.996Z,66.45
2017-09-03T04:48:22.700Z,66.25
2017-09-03T04:49:32.957Z,66.25
2017-09-03T04:50:42.974Z,66.45
2017-09-03T04:51:53.876Z,66.54
2017-09-03T04:53:03.895Z,66.83
2017-09-03T04:54:13.930Z,66.54
2017-09-03T04:55:23.999Z,66.45
2017-09-03T04:56:34.336Z,66.74
2017-09-03T04:57:44.346Z,66.74
2017-09-03T04:58:54.675Z,66.25
2017-09-03T05:00:04.691Z,66.54
2017-09-03T05:01:14.772Z,66.35
2017-09-03T05:02:24.787Z,66.45
2017-09-03T05:03:36.296Z,66.54
2017-09-03T05:04:48.375Z,66.45
2017-09-03T05:05:58.706Z,66.35
2017-09-03T05:07:08.828Z,66.22
2017-09-03T05:08:19.218Z,66.54
2017-09-03T05:09:29.556Z,66.41
2017-09-03T05:10:39.890Z,66.22
2017-09-03T05:11:49.921Z,66.16
2017-09-03T05:12:59.973Z,66.54
2017-09-03T05:14:10.312Z,65.97
2017-09-03T05:15:20.328Z,65.88
2017-09-03T05:16:30.673Z,66.06
2017-09-03T05:17:40.398Z,66.06
2017-09-03T05:18:50.740Z,65.68
2017-09-03T05:20:01.086Z,65.84
2017-09-03T05:21:11.426Z,65.74
2017-09-03T05:22:21.777Z,66.35
2017-09-03T05:23:32.128Z,65.78
2017-09-03T05:24:42.461Z,65.97
2017-09-03T05:25:52.806Z,66.06
2017-09-03T05:27:03.168Z,65.97
2017-09-03T05:28:13.514Z,66.06
2017-09-03T05:29:23.861Z,66.06
2017-09-03T05:30:34.207Z,65.97
2017-09-03T05:31:44.559Z,66.06
2017-09-03T05:32:54.581Z,65.88
2017-09-03T05:34:04.928Z,65.97
2017-09-03T05:35:14.641Z,65.88
2017-09-03T05:36:24.983Z,65.78
2017-09-03T05:37:34.999Z,66.45
2017-09-03T05:38:45.321Z,65.88
2017-09-03T05:39:55.667Z,65.78
2017-09-03T05:41:05.997Z,65.68
2017-09-03T05:42:16.032Z,65.68
2017-09-03T05:43:26.378Z,65.68
2017-09-03T05:44:36.928Z,65.88
2017-09-03T05:45:47.261Z,65.39
2017-09-03T05:46:57.656Z,65.62
2017-09-03T05:48:08.005Z,65.52
2017-09-03T05:49:18.350Z,65.62
2017-09-03T05:50:28.692Z,65.52
2017-09-03T05:51:38.735Z,65.78
2017-09-03T05:52:49.131Z,65.68
2017-09-03T05:53:59.153Z,65.78
2017-09-03T05:55:09.481Z,65.81
2017-09-03T05:56:19.802Z,65.68
2017-09-03T05:57:30.134Z,65.81
2017-09-03T05:58:40.478Z,65.52
2017-09-03T05:59:50.818Z,65.52
2017-09-03T06:01:01.174Z,65.81
2017-09-03T06:02:11.511Z,65.81
2017-09-03T06:03:21.527Z,65.71
2017-09-03T06:04:31.884Z,65.71
2017-09-03T06:05:42.220Z,65.52
2017-09-03T06:06:52.257Z,65.52
2017-09-03T06:08:02.833Z,65.52
2017-09-03T06:09:13.186Z,65.62
2017-09-03T06:10:23.578Z,65.52
2017-09-03T06:11:33.962Z,65.42
2017-09-03T06:12:44.341Z,65.62
2017-09-03T06:13:54.672Z,65.71
2017-09-03T06:15:05.014Z,65.62
2017-09-03T06:16:15.357Z,65.62
2017-09-03T06:17:25.676Z,65.52
2017-09-03T06:18:36.011Z,65.52
2017-09-03T06:19:46.037Z,65.33
2017-09-03T06:20:56.373Z,65.81
2017-09-03T06:22:06.765Z,65.81
2017-09-03T06:23:17.113Z,65.33
2017-09-03T06:24:27.704Z,65.33
2017-09-03T06:25:38.085Z,65.62
2017-09-03T06:26:48.447Z,65.42
2017-09-03T06:27:58.875Z,65.42
2017-09-03T06:29:08.591Z,65.42
2017-09-03T06:30:18.637Z,65.42
2017-09-03T06:31:28.982Z,65.71
2017-09-03T06:32:39.319Z,65.33
2017-09-03T06:33:49.960Z,65.62
2017-09-03T06:35:00.291Z,65.23
2017-09-03T06:36:10.623Z,65.23
2017-09-03T06:37:20.966Z,65.62
2017-09-03T06:38:31.311Z,65.42
2017-09-03T06:39:41.650Z,65.36
2017-09-03T06:40:51.695Z,65.46
2017-09-03T06:42:02.041Z,65.33
2017-09-03T06:43:12.833Z,65.36
2017-09-03T06:44:22.866Z,65.17
2017-09-03T06:45:33.218Z,65.55
2017-09-03T06:46:43.559Z,65.81
2017-09-03T06:47:53.905Z,65.42
2017-09-03T06:49:04.252Z,65.52
2017-09-03T06:50:14.613Z,66.19
2017-09-03T06:51:25.025Z,66.38
2017-09-03T06:52:35.054Z,65.91
2017-09-03T06:53:45.394Z,65.81
2017-09-03T06:54:55.741Z,65.81
2017-09-03T06:56:06.086Z,66.48
2017-09-03T06:57:16.133Z,66.19
2017-09-03T06:58:26.472Z,66.48
2017-09-03T06:59:36.809Z,66.09
2017-09-03T07:00:47.159Z,66.06
2017-09-03T07:01:57.500Z,65.81
2017-09-03T07:03:07.869Z,65.71
2017-09-03T07:04:17.904Z,65.52
2017-09-03T07:05:27.931Z,65.52
2017-09-03T07:06:38.272Z,65.33
2017-09-03T07:07:48.292Z,65.62
2017-09-03T07:08:58.631Z,65.71
2017-09-03T07:10:08.977Z,65.71
2017-09-03T07:11:19.305Z,65.14
2017-09-03T07:12:29.658Z,65.62
2017-09-03T07:13:39.684Z,65.71
2017-09-03T07:14:49.388Z,65.62
2017-09-03T07:15:59.743Z,65.71
2017-09-03T07:17:10.096Z,65.81
2017-09-03T07:18:19.806Z,65.62
2017-09-03T07:19:30.148Z,65.33
2017-09-03T07:20:40.497Z,65.55
2017-09-03T07:21:50.836Z,65.08
2017-09-03T07:23:01.219Z,65.26
2017-09-03T07:24:11.588Z,65.17
2017-09-03T07:25:21.924Z,65.26
2017-09-03T07:26:31.964Z,65.17
2017-09-03T07:27:42.305Z,65.26
2017-09-03T07:28:52.707Z,65.17
2017-09-03T07:30:03.072Z,64.98
2017-09-03T07:31:13.096Z,65.26
2017-09-03T07:32:23.437Z,65.17
2017-09-03T07:33:33.480Z,64.92
2017-09-03T07:34:43.842Z,64.63
2017-09-03T07:35:54.207Z,64.53
2017-09-03T07:37:04.588Z,64.43
2017-09-03T07:38:14.937Z,64.15
2017-09-03T07:39:24.997Z,64.43
2017-09-03T07:40:35.709Z,64.18
2017-09-03T07:41:46.069Z,64.53
2017-09-03T07:42:56.430Z,64.66
2017-09-03T07:44:06.485Z,64.47
2017-09-03T07:45:16.834Z,64.47
2017-09-03T07:46:27.256Z,64.18
2017-09-03T07:47:37.611Z,64.47
2017-09-03T07:48:47.955Z,64.66
2017-09-03T07:49:58.325Z,64.56
2017-09-03T07:51:08.681Z,65.33
2017-09-03T07:52:19.051Z,65.05
2017-09-03T07:53:29.087Z,65.23
2017-09-03T07:54:39.464Z,65.52
2017-09-03T07:55:49.830Z,65.52
2017-09-03T07:57:00.193Z,65.52
2017-09-03T07:58:10.587Z,65.72
2017-09-03T07:59:20.953Z,65.91
2017-09-03T08:00:30.676Z,65.81
2017-09-03T08:01:40.396Z,65.62
2017-09-03T08:02:50.737Z,65.62
2017-09-03T08:04:01.143Z,65.62
2017-09-03T08:05:11.493Z,65.05
2017-09-03T08:06:21.851Z,65.33
2017-09-03T08:07:32.204Z,65.05
2017-09-03T08:08:42.242Z,65.23
2017-09-03T08:09:52.590Z,65.23
2017-09-03T08:11:02.641Z,65.43
2017-09-03T08:12:12.681Z,65.05
2017-09-03T08:13:22.727Z,65.14
2017-09-03T08:14:33.101Z,65.14
2017-09-03T08:15:43.510Z,65.43
2017-09-03T08:16:53.858Z,65.05
2017-09-03T08:18:04.225Z,64.89
2017-09-03T08:19:14.578Z,64.89
2017-09-03T08:20:24.606Z,64.69
2017-09-03T08:21:34.957Z,64.59
2017-09-03T08:22:45.306Z,64.4
2017-09-03T08:23:55.650Z,64.5
2017-09-03T08:25:06.002Z,64.69
2017-09-03T08:26:16.382Z,64.69
2017-09-03T08:27:26.745Z,64.72
2017-09-03T08:28:38.762Z,64.82
2017-09-03T08:29:48.165Z,64.53
2017-09-03T08:30:58.515Z,64.53
2017-09-03T08:32:08.875Z,64.63
2017-09-03T08:33:19.233Z,64.34
2017-09-03T08:34:29.599Z,64.92
2017-09-03T08:35:39.967Z,65.11
2017-09-03T08:36:50.314Z,65.36
2017-09-03T08:38:00.685Z,65.36
2017-09-03T08:39:10.718Z,64.92
2017-09-03T08:40:20.780Z,64.72
2017-09-03T08:41:30.509Z,64.63
2017-09-03T08:42:40.864Z,64.53
2017-09-03T08:43:51.215Z,64.72
2017-09-03T08:45:01.561Z,64.72
2017-09-03T08:46:11.909Z,64.72
2017-09-03T08:47:21.931Z,64.72
2017-09-03T08:48:32.327Z,64.56
2017-09-03T08:49:42.379Z,64.56
2017-09-03T08:50:52.737Z,63.89
2017-09-03T08:52:02.780Z,64.37
2017-09-03T08:53:12.805Z,64.31
2017-09-03T08:54:22.859Z,64.31
2017-09-03T08:55:33.660Z,64.31
2017-09-03T08:56:44.064Z,64.22
2017-09-03T08:57:54.426Z,64.5
2017-09-03T08:59:04.468Z,63.92
2017-09-03T09:00:15.522Z,63.67
2017-09-03T09:01:25.857Z,63.76
2017-09-03T09:02:36.259Z,64.15
2017-09-03T09:03:46.601Z,64.15
2017-09-03T09:04:56.949Z,64.31
2017-09-03T09:06:07.308Z,64.5
2017-09-03T09:07:17.651Z,64.6
2017-09-03T09:08:27.730Z,64.79
2017-09-03T09:09:38.081Z,64.69
2017-09-03T09:10:48.427Z,64.79
2017-09-03T09:11:58.773Z,64.98
2017-09-03T09:13:10.371Z,64.6
2017-09-03T09:14:20.427Z,64.22
2017-09-03T09:15:30.782Z,64.43
2017-09-03T09:16:41.140Z,64.34
2017-09-03T09:17:51.480Z,63.76
2017-09-03T09:19:01.823Z,63.67
2017-09-03T09:20:12.230Z,63.41
2017-09-03T09:21:22.258Z,63.31
2017-09-03T09:22:32.590Z,62.83
2017-09-03T09:23:42.950Z,62.67
2017-09-03T09:24:53.297Z,62.6
2017-09-03T09:26:03.387Z,62.8
2017-09-03T09:27:13.410Z,62.12
2017-09-03T09:28:23.747Z,62.15
2017-09-03T09:29:34.084Z,62.06
2017-09-03T09:30:44.424Z,62.25
2017-09-03T09:31:54.819Z,62.35
2017-09-03T09:33:04.854Z,62.15
2017-09-03T09:34:15.229Z,62.25
2017-09-03T09:35:25.567Z,62.09
2017-09-03T09:36:35.601Z,62.18
2017-09-03T09:37:45.999Z,62.28
2017-09-03T09:38:56.334Z,62.12
2017-09-03T09:40:06.037Z,62.31
2017-09-03T09:41:16.369Z,62.51
2017-09-03T09:42:26.068Z,62.31
2017-09-03T09:43:36.465Z,62.41
2017-09-03T09:44:46.802Z,62.89
2017-09-03T09:45:57.139Z,62.31
2017-09-03T09:47:07.472Z,62.66
2017-09-03T09:48:17.552Z,62.86
2017-09-03T09:49:27.960Z,63.54
2017-09-03T09:50:38.315Z,63.79
2017-09-03T09:51:48.337Z,63.7
2017-09-03T09:52:58.370Z,63.31
2017-09-03T09:54:08.406Z,63.31
2017-09-03T09:55:18.758Z,63.02
2017-09-03T09:56:28.788Z,63.02
2017-09-03T09:57:39.162Z,62.86
2017-09-03T09:58:49.190Z,62.66
2017-09-03T09:59:59.538Z,63.06
2017-09-03T10:01:09.891Z,63.24
2017-09-03T10:02:20.248Z,62.86
2017-09-03T10:03:33.220Z,62.96
2017-09-03T10:04:43.246Z,62.76
2017-09-03T10:05:53.581Z,63.06
2017-09-03T10:07:03.932Z,62.76
2017-09-03T10:08:14.282Z,63.82
2017-09-03T10:09:24.620Z,63.89
2017-09-03T10:10:34.977Z,63.85
2017-09-03T10:11:45.047Z,63.85
2017-09-03T10:12:55.396Z,63.76
2017-09-03T10:14:05.434Z,64.15
2017-09-03T10:15:15.463Z,63.47
2017-09-03T10:16:25.806Z,63.76
2017-09-03T10:17:36.233Z,63.57
2017-09-03T10:18:46.578Z,63.57
2017-09-03T10:19:56.945Z,63.28
2017-09-03T10:21:07.295Z,63.12
2017-09-03T10:22:17.349Z,62.63
2017-09-03T10:23:27.396Z,62.86
2017-09-03T10:24:37.742Z,62.66
2017-09-03T10:25:48.086Z,62.12
2017-09-03T10:26:58.185Z,62.51
2017-09-03T10:28:08.233Z,62.31
2017-09-03T10:29:18.628Z,62.31
2017-09-03T10:30:28.977Z,61.74
2017-09-03T10:31:39.340Z,62.12
2017-09-03T10:32:49.699Z,62.25
2017-09-03T10:34:00.077Z,61.77
2017-09-03T10:35:10.490Z,61.96
2017-09-03T10:36:20.847Z,62.05
2017-09-03T10:37:31.205Z,61.96
2017-09-03T10:38:41.598Z,61.96
2017-09-03T10:39:51.954Z,61.96
2017-09-03T10:41:02.308Z,62.08
2017-09-03T10:42:12.684Z,61.99
2017-09-03T10:43:23.033Z,62.08
2017-09-03T10:44:33.370Z,61.99
2017-09-03T10:45:43.732Z,62.37
2017-09-03T10:46:54.236Z,61.12
2017-09-03T10:48:04.270Z,61.05
2017-09-03T10:49:14.629Z,61.05
2017-09-03T10:50:24.663Z,60.96
2017-09-03T10:51:34.698Z,60.89
2017-09-03T10:52:45.045Z,61.18
2017-09-03T10:53:55.377Z,61.27
2017-09-03T10:55:05.421Z,61.57
2017-09-03T10:56:15.780Z,61.6
2017-09-03T10:57:27.293Z,61.4
2017-09-03T10:58:37.325Z,61.5
2017-09-03T10:59:47.715Z,61.4
2017-09-03T11:00:58.077Z,61.43
2017-09-03T11:02:08.435Z,61.24
2017-09-03T11:03:18.788Z,60.95
2017-09-03T11:04:29.180Z,61.33
2017-09-03T11:05:39.215Z,61.33
2017-09-03T11:06:49.565Z,62.18
2017-09-03T11:07:59.597Z,61.79
2017-09-03T11:09:09.945Z,62.08
2017-09-03T11:10:20.374Z,62.63
2017-09-03T11:11:30.402Z,62.63
2017-09-03T11:12:40.756Z,62.89
2017-09-03T11:13:50.773Z,62.6
2017-09-03T11:15:00.800Z,62.7
2017-09-03T11:16:10.826Z,62.7
2017-09-03T11:17:20.862Z,62.05
2017-09-03T11:18:30.896Z,61.18
2017-09-03T11:19:41.229Z,61.5
2017-09-03T11:20:51.572Z,61.6
2017-09-03T11:22:01.985Z,61.3
2017-09-03T11:23:12.331Z,61.4
2017-09-03T11:24:22.692Z,61.33
2017-09-03T11:25:33.057Z,61.24
2017-09-03T11:26:43.409Z,62.21
2017-09-03T11:27:53.797Z,62.37
2017-09-03T11:29:03.511Z,61.79
2017-09-03T11:30:13.527Z,61.98
2017-09-03T11:31:23.881Z,62.66
2017-09-03T11:32:35.376Z,62.63
2017-09-03T11:33:45.772Z,62.82
2017-09-03T11:34:56.150Z,62.92
2017-09-03T11:36:06.190Z,62.92
2017-09-03T11:37:16.536Z,63.02
2017-09-03T11:38:26.898Z,61.98
2017-09-03T11:39:37.266Z,62.76
2017-09-03T11:40:47.636Z,63.76
2017-09-03T11:41:57.663Z,63.47
2017-09-03T11:43:08.029Z,62.4
2017-09-03T11:44:18.385Z,62.12
2017-09-03T11:45:28.731Z,61.4
2017-09-03T11:46:39.092Z,62.5
2017-09-03T11:47:49.118Z,62.37
2017-09-03T11:48:59.464Z,62.47
2017-09-03T11:50:09.827Z,62.53
2017-09-03T11:51:19.920Z,62.08
2017-09-03T11:52:30.289Z,60.95
2017-09-03T11:53:40.627Z,61.36
2017-09-03T11:54:50.985Z,62.59
2017-09-03T11:56:01.024Z,62.24
2017-09-03T11:57:11.381Z,62.18
2017-09-03T11:58:21.716Z,62.27
2017-09-03T11:59:32.080Z,62.47
2017-09-03T12:00:42.440Z,62.82
2017-09-03T12:01:54.805Z,62.92
2017-09-03T12:03:05.214Z,62.66
2017-09-03T12:04:15.570Z,62.76
2017-09-03T12:05:25.936Z,62.44
2017-09-03T12:06:36.294Z,62.92
2017-09-03T12:07:46.654Z,63.02
2017-09-03T12:08:56.747Z,62.73
2017-09-03T12:10:07.092Z,63.02
2017-09-03T12:11:17.437Z,62.82
2017-09-03T12:12:27.467Z,62.92
2017-09-03T12:13:36.863Z,62.92
2017-09-03T12:14:46.935Z,62.73
2017-09-03T12:15:57.278Z,62.63
2017-09-03T12:17:07.643Z,60.92
2017-09-03T12:18:17.664Z,60.59
2017-09-03T12:19:27.687Z,60.98
2017-09-03T12:20:38.024Z,61.18
2017-09-03T12:21:48.390Z,60.88
2017-09-03T12:22:58.749Z,61.11
2017-09-03T12:24:08.790Z,60.82
2017-09-03T12:25:19.170Z,60.65
2017-09-03T12:26:29.552Z,60.75
2017-09-03T12:27:39.915Z,60.65
2017-09-03T12:28:49.971Z,61.04
2017-09-03T12:30:00.329Z,60.62
2017-09-03T12:31:10.667Z,60.65
2017-09-03T12:32:21.076Z,60.78
2017-09-03T12:33:31.418Z,60.75
2017-09-03T12:34:41.781Z,61.43
2017-09-03T12:35:52.168Z,60.94
2017-09-03T12:37:02.512Z,61.33
2017-09-03T12:38:12.908Z,60.94
2017-09-03T12:39:22.951Z,61.04
2017-09-03T12:40:33.007Z,61.43
2017-09-03T12:41:43.357Z,61.24
2017-09-03T12:42:53.739Z,61.24
2017-09-03T12:44:04.084Z,61.69
2017-09-03T12:45:14.430Z,62.37
2017-09-03T12:46:24.783Z,62.63
2017-09-03T12:47:35.139Z,63.01
2017-09-03T12:48:45.165Z,62.69
2017-09-03T12:49:55.559Z,62.59
2017-09-03T12:51:05.904Z,62.69
2017-09-03T12:52:15.927Z,62.88
2017-09-03T12:53:26.274Z,62.88
2017-09-03T12:54:36.615Z,63.08
2017-09-03T12:55:46.963Z,62.98
2017-09-03T12:56:57.006Z,62.5
2017-09-03T12:58:07.357Z,62.76
2017-09-03T12:59:17.389Z,62.47
2017-09-03T13:00:28.608Z,62.47
2017-09-03T13:01:39.002Z,62.47
2017-09-03T13:02:49.343Z,62.76
2017-09-03T13:04:01.287Z,62.18
2017-09-03T13:05:12.078Z,62.66
2017-09-03T13:06:22.430Z,62.47
2017-09-03T13:07:33.127Z,61.98
2017-09-03T13:08:44.672Z,62.27
2017-09-03T13:09:55.350Z,62.18
2017-09-03T13:11:05.416Z,62.08
2017-09-03T13:12:15.588Z,62.11
2017-09-03T13:13:26.460Z,62.3
2017-09-03T13:14:36.827Z,62.11
2017-09-03T13:15:47.163Z,62.01
2017-09-03T13:16:57.932Z,61.98
2017-09-03T13:18:08.853Z,62.01
2017-09-03T13:19:19.215Z,62.4
2017-09-03T13:20:29.563Z,62.18
2017-09-03T13:21:40.126Z,62.11
2017-09-03T13:22:51.074Z,62.4
2017-09-03T13:24:01.433Z,62.21
2017-09-03T13:25:12.552Z,62.79
2017-09-03T13:26:24.374Z,62.59
2017-09-03T13:27:35.278Z,63.05
2017-09-03T13:28:45.578Z,62.66
2017-09-03T13:29:55.305Z,62.92
2017-09-03T13:31:05.975Z,63.31
2017-09-03T13:32:16.327Z,62.98
2017-09-03T13:33:26.049Z,63.47
2017-09-03T13:34:36.094Z,62.79
2017-09-03T13:35:46.084Z,63.18
2017-09-03T13:36:56.781Z,62.89
2017-09-03T13:38:06.810Z,63.08
2017-09-03T13:39:17.829Z,63.18
2017-09-03T13:40:29.036Z,62.98
2017-09-03T13:41:40.752Z,62.98
2017-09-03T13:42:51.914Z,62.98
2017-09-03T13:44:01.955Z,62.98
2017-09-03T13:45:12.844Z,63.37
2017-09-03T13:46:23.329Z,63.08
2017-09-03T13:47:33.354Z,63.37
2017-09-03T13:48:43.894Z,63.37
2017-09-03T13:49:54.408Z,63.28
2017-09-03T13:51:05.330Z,63.37
2017-09-03T13:52:16.054Z,63.18
2017-09-03T13:53:26.920Z,62.6
2017-09-03T13:54:36.692Z,62.6
2017-09-03T13:55:47.900Z,62.6
2017-09-03T13:56:58.620Z,62.5
2017-09-03T13:58:08.982Z,62.82
2017-09-03T13:59:19.312Z,62.92
2017-09-03T14:00:30.571Z,62.92
2017-09-03T14:01:44.838Z,62.63
2017-09-03T14:02:57.018Z,62.73
2017-09-03T14:04:07.465Z,62.82
2017-09-03T14:05:19.010Z,62.82
2017-09-03T14:06:29.643Z,62.82
2017-09-03T14:07:40.758Z,62.92
2017-09-03T14:08:51.129Z,62.85
2017-09-03T14:10:02.235Z,62.85
2017-09-03T14:11:12.983Z,62.95
2017-09-03T14:12:22.411Z,62.95
2017-09-03T14:13:32.479Z,62.85
2017-09-03T14:14:43.072Z,63.05
2017-09-03T14:15:54.458Z,63.05
2017-09-03T14:17:04.646Z,62.85
2017-09-03T14:18:14.689Z,62.76
2017-09-03T14:19:25.750Z,62.66
2017-09-03T14:20:37.022Z,62.66
2017-09-03T14:21:47.331Z,62.85
2017-09-03T14:22:57.775Z,62.66
2017-09-03T14:24:08.151Z,62.66
2017-09-03T14:25:18.512Z,62.85
2017-09-03T14:26:33.060Z,63.4
2017-09-03T14:27:43.056Z,63.21
2017-09-03T14:28:52.793Z,63.02
2017-09-03T14:30:02.960Z,63.5
2017-09-03T14:31:13.398Z,63.5
2017-09-03T14:32:23.763Z,63.5
2017-09-03T14:33:33.795Z,63.79
2017-09-03T14:34:43.817Z,63.79
2017-09-03T14:35:54.097Z,63.5
2017-09-03T14:37:05.936Z,63.69
2017-09-03T14:38:16.303Z,64.08
2017-09-03T14:39:25.388Z,63.95
2017-09-03T14:40:36.386Z,63.66
2017-09-03T14:41:47.352Z,63.76
2017-09-03T14:42:57.729Z,63.85
2017-09-03T14:44:08.413Z,63.47
2017-09-03T14:45:19.895Z,63.76
2017-09-03T14:46:30.759Z,63.47
2017-09-03T14:47:41.146Z,63.21
2017-09-03T14:48:51.867Z,63.02
2017-09-03T14:50:01.651Z,62.82
2017-09-03T14:51:11.684Z,63.6
2017-09-03T14:52:22.037Z,63.69
2017-09-03T14:53:32.399Z,63.5
2017-09-03T14:54:42.746Z,63.11
2017-09-03T14:55:59.501Z,62.82
2017-09-03T14:57:08.902Z,63.31
2017-09-03T14:58:20.156Z,62.37
2017-09-03T14:59:30.524Z,62.76
2017-09-03T15:00:40.888Z,62.56
2017-09-03T15:01:50.927Z,63.05
2017-09-03T15:03:00.634Z,63.05
2017-09-03T15:04:10.402Z,63.43
2017-09-03T15:05:20.746Z,63.14
2017-09-03T15:06:31.109Z,63.24
2017-09-03T15:07:41.148Z,62.85
2017-09-03T15:08:51.179Z,63.63
2017-09-03T15:10:01.531Z,63.63
2017-09-03T15:11:11.899Z,62.95
2017-09-03T15:12:22.258Z,62.66
2017-09-03T15:13:32.601Z,62.76
2017-09-03T15:14:42.637Z,62.4
2017-09-03T15:15:53.066Z,62.01
2017-09-03T15:17:05.092Z,62.34
2017-09-03T15:18:15.128Z,62.72
2017-09-03T15:19:24.911Z,62.98
2017-09-03T15:20:35.328Z,62.88
2017-09-03T15:21:45.808Z,63.27
2017-09-03T15:22:56.190Z,62.59
2017-09-03T15:24:06.566Z,63.56
2017-09-03T15:25:19.092Z,63.76
2017-09-03T15:26:29.463Z,64.21
2017-09-03T15:27:39.541Z,64.37
2017-09-03T15:28:49.577Z,65.11
2017-09-03T15:29:59.659Z,64.92
2017-09-03T15:31:10.035Z,65.56
2017-09-03T15:32:20.394Z,65.72
2017-09-03T15:33:30.489Z,66.11
2017-09-03T15:34:40.542Z,66.11
2017-09-03T15:35:50.266Z,66.17
2017-09-03T15:37:00.635Z,65.78
2017-09-03T15:46:50.069Z,65.01
2017-09-03T15:48:00.434Z,64.72
2017-09-03T15:49:10.809Z,64.72
2017-09-03T15:50:21.183Z,64.82